Paynesville, MN

06:12 CST le 25 janvier 2015 (GMT -0600)
Sauk Centre | Change Station
CLOSE
Current Station
Aéroport
Location: Sauk Centre,
Altitude: 1240 ft
Stations météo à proximité

Alt. 1240 ft 45.71 °N, 94.93 °W | Updated 20 minutes ago

Couvert
Couvert
26 ° F
Paraît 16 ° F
N
10
Vent Variable Vent de NE

Aujourd'hui
Haut(e) -- | Bas -- ° F
--% Risque de précip.
Hier
Haut(e) -- | Bas -- ° F
Precip. -- pouce
7:47 AM 5:15 PM
Lune montante, 31% visible
Pression 29.90 pouce
Visibilité 10.0 Miles terrestres
Nuages Couvert 2600 ft
Refroidissement éolien 16 ° F
Point de rosée 22 ° F
Humidité 84%
Précipitations 0.00 pouce
Profondeur de la couche neigeuse Non disponible.
UV 0 sur 12
Pollen .10 sur 12
Qualité de l'air Non disponible.
Flu Activity Non disponible.
METAR KD39 251152Z AUTO 04009KT 10SM OVC026 M03/M06 A2990 RMK AO2 T10331057 10003 21033

More Conditions Fewer Conditions

Pression 29.90 pouce
Visibilité 10.0 Miles terrestres
Nuages Couvert 2600 ft
Refroidissement éolien 16 ° F
Point de rosée 22 ° F
Humidité 84%
Précipitations 0.00 pouce
Profondeur de la couche neigeuse Non disponible.
UV 0 sur 12
Pollen .10 sur 12
Qualité de l'air Non disponible.
Flu Activity Non disponible.
METAR KD39 251152Z AUTO 04009KT 10SM OVC026 M03/M06 A2990 RMK AO2 T10331057 10003 21033

More Conditions Fewer Conditions

10-Day Weather Forecast

Almanac

Astronomie

Jan. 25, 2015 Lever Coucher
Temps réel
Crépuscule civil
Crépuscule nautique
Crépuscule astronomique
Lune
Durée de lumière visible
Longueur du jour
Tomorrow will be .
, % of the Moon is Illuminated

Extrêmes aujourd'hui

State Highs State Lows

Community

WunderPhotos

Upload Photos

1,789,873 Photos téléchargées !

WunderBlogs® & News

Nearby

Qualité de l'air

  Qualité de l'air Indice de la qualité de l'air Polluant
Not available.

Épaisseur de neige

Station Depth Altitude

Activité sismique

Ville Distance Mag. Time & Date
Minimum magnitude displayed is 2.5.

Températures des eaux côtières

Lieu Température

Stations météo à proximité